createdAt,value
2023-03-20T00:00:19.987Z,100.00
2023-03-20T00:02:54.383Z,100.00
2023-03-20T00:05:30.317Z,100.00
2023-03-20T00:08:03.667Z,100.00
2023-03-20T00:10:46.499Z,100.00
2023-03-20T00:13:29.082Z,100.00
2023-03-20T00:16:03.094Z,100.00
2023-03-20T00:18:36.370Z,100.00
2023-03-20T00:21:20.531Z,100.00
2023-03-20T00:23:55.750Z,100.00
2023-03-20T00:26:46.670Z,100.00
2023-03-20T00:29:28.904Z,100.00
2023-03-20T00:32:02.090Z,100.00
2023-03-20T00:34:36.102Z,100.00
2023-03-20T00:37:12.033Z,100.00
2023-03-20T00:39:45.023Z,100.00
2023-03-20T00:42:22.548Z,100.00
2023-03-20T00:44:59.841Z,100.00
2023-03-20T00:47:32.777Z,100.00
2023-03-20T00:50:19.617Z,100.00
2023-03-20T00:52:53.924Z,100.00
2023-03-20T00:55:29.660Z,100.00
2023-03-20T00:58:04.682Z,100.00
2023-03-20T01:00:45.852Z,100.00
2023-03-20T01:03:27.861Z,100.00
2023-03-20T01:06:00.701Z,100.00
2023-03-20T01:08:33.809Z,100.00
2023-03-20T01:11:06.959Z,100.00
2023-03-20T01:13:40.937Z,100.00
2023-03-20T01:16:25.061Z,100.00
2023-03-20T01:18:58.206Z,100.00
2023-03-20T01:21:32.001Z,100.00
2023-03-20T01:24:06.707Z,100.00
2023-03-20T01:26:45.378Z,100.00
2023-03-20T01:29:24.457Z,100.00
2023-03-20T01:31:57.577Z,100.00
2023-03-20T01:34:31.567Z,100.00
2023-03-20T01:37:05.386Z,100.00
2023-03-20T01:39:39.893Z,100.00
2023-03-20T01:42:16.695Z,100.00
2023-03-20T01:44:49.576Z,100.00
2023-03-20T01:47:26.220Z,100.00
2023-03-20T01:50:23.978Z,100.00
2023-03-20T01:53:23.975Z,100.00
2023-03-20T01:56:00.634Z,100.00
2023-03-20T01:58:39.430Z,100.00
2023-03-20T02:01:16.295Z,100.00
2023-03-20T02:03:50.963Z,100.00
2023-03-20T02:06:27.641Z,100.00
2023-03-20T02:09:13.020Z,100.00
2023-03-20T02:11:49.160Z,100.00
2023-03-20T02:14:23.612Z,100.00
2023-03-20T02:17:01.762Z,100.00
2023-03-20T02:20:24.549Z,100.00
2023-03-20T02:23:37.867Z,100.00
2023-03-20T02:26:42.887Z,100.00
2023-03-20T02:29:48.484Z,100.00
2023-03-20T02:32:47.302Z,100.00
2023-03-20T02:35:33.789Z,100.00
2023-03-20T02:38:35.323Z,100.00
2023-03-20T02:41:25.381Z,100.00
2023-03-20T02:44:06.264Z,100.00
2023-03-20T02:46:47.220Z,100.00
2023-03-20T02:50:00.870Z,100.00
2023-03-20T02:52:50.888Z,100.00
2023-03-20T02:55:44.419Z,100.00
2023-03-20T02:58:35.876Z,100.00
2023-03-20T03:01:16.238Z,100.00
2023-03-20T03:03:53.657Z,100.00
2023-03-20T03:06:36.168Z,100.00
2023-03-20T03:09:22.896Z,100.00
2023-03-20T03:12:00.669Z,100.00
2023-03-20T03:14:50.222Z,100.00
2023-03-20T03:17:26.021Z,100.00
2023-03-20T03:20:05.130Z,100.00
2023-03-20T03:22:38.647Z,100.00
2023-03-20T03:25:14.264Z,100.00
2023-03-20T03:27:52.301Z,100.00
2023-03-20T03:30:34.391Z,100.00
2023-03-20T03:33:31.587Z,100.00
2023-03-20T03:36:16.658Z,100.00
2023-03-20T03:38:52.380Z,100.00
2023-03-20T03:41:42.136Z,100.00
2023-03-20T03:44:34.237Z,100.00
2023-03-20T03:47:31.284Z,100.00
2023-03-20T03:50:09.180Z,100.00
2023-03-20T03:52:44.062Z,100.00
2023-03-20T03:55:25.825Z,100.00
2023-03-20T03:58:13.967Z,100.00
2023-03-20T04:00:50.052Z,100.00
2023-03-20T04:03:26.016Z,100.00
2023-03-20T04:06:01.185Z,100.00
2023-03-20T04:08:36.480Z,100.00
2023-03-20T04:11:08.638Z,100.00
2023-03-20T04:13:42.658Z,100.00
2023-03-20T04:16:17.378Z,100.00
2023-03-20T04:18:51.052Z,100.00
2023-03-20T04:21:25.118Z,100.00
2023-03-20T04:23:58.013Z,100.00
2023-03-20T04:26:31.258Z,100.00
2023-03-20T04:29:04.790Z,100.00
2023-03-20T04:31:40.024Z,100.00
2023-03-20T04:34:18.337Z,100.00
2023-03-20T04:37:02.718Z,100.00
2023-03-20T04:39:37.950Z,100.00
2023-03-20T04:42:12.159Z,100.00
2023-03-20T04:44:46.349Z,100.00
2023-03-20T04:47:19.808Z,100.00
2023-03-20T04:49:53.446Z,100.00
2023-03-20T04:52:27.138Z,100.00
2023-03-20T04:55:01.151Z,100.00
2023-03-20T04:57:35.421Z,100.00
2023-03-20T05:00:11.776Z,100.00
2023-03-20T05:02:45.968Z,100.00
2023-03-20T05:05:20.643Z,100.00
2023-03-20T05:07:55.276Z,100.00
2023-03-20T05:10:39.363Z,100.00
2023-03-20T05:13:14.019Z,100.00
2023-03-20T05:15:58.242Z,100.00
2023-03-20T05:18:45.775Z,100.00
2023-03-20T05:21:36.974Z,100.00
2023-03-20T05:24:14.807Z,100.00
2023-03-20T05:26:52.098Z,100.00
2023-03-20T05:29:43.211Z,100.00
2023-03-20T05:32:21.046Z,100.00
2023-03-20T05:34:58.259Z,100.00
2023-03-20T05:37:33.687Z,100.00
2023-03-20T05:40:15.090Z,100.00
2023-03-20T05:43:05.974Z,100.00
2023-03-20T05:45:57.746Z,100.00
2023-03-20T05:48:33.201Z,100.00
2023-03-20T05:51:14.140Z,100.00
2023-03-20T05:53:57.846Z,100.00
2023-03-20T05:56:44.655Z,100.00
2023-03-20T05:59:19.698Z,100.00
2023-03-20T06:02:10.675Z,100.00
2023-03-20T06:04:45.988Z,100.00
2023-03-20T06:07:20.535Z,100.00
2023-03-20T06:09:56.133Z,100.00
2023-03-20T06:12:28.915Z,100.00
2023-03-20T06:15:02.090Z,100.00
2023-03-20T06:17:36.912Z,100.00
2023-03-20T06:20:12.926Z,100.00
2023-03-20T06:22:46.666Z,100.00
2023-03-20T06:25:22.134Z,100.00
2023-03-20T06:27:58.344Z,100.00
2023-03-20T06:30:31.930Z,100.00
2023-03-20T06:33:07.580Z,100.00
2023-03-20T06:35:42.264Z,100.00
2023-03-20T06:38:17.202Z,100.00
2023-03-20T06:40:50.856Z,100.00
2023-03-20T06:43:27.173Z,100.00
2023-03-20T06:46:00.289Z,100.00
2023-03-20T06:48:35.792Z,100.00
2023-03-20T06:51:10.561Z,100.00
2023-03-20T06:53:45.113Z,100.00
2023-03-20T06:56:22.738Z,100.00
2023-03-20T06:58:56.460Z,100.00
2023-03-20T07:01:30.336Z,100.00
2023-03-20T07:04:03.310Z,100.00
2023-03-20T07:06:38.795Z,100.00
2023-03-20T07:09:11.806Z,100.00
2023-03-20T07:11:45.357Z,100.00
2023-03-20T07:14:20.157Z,100.00
2023-03-20T07:16:56.668Z,100.00
2023-03-20T07:19:28.774Z,100.00
2023-03-20T07:22:05.777Z,100.00
2023-03-20T07:24:40.900Z,100.00
2023-03-20T07:27:14.353Z,100.00
2023-03-20T07:29:48.081Z,100.00
2023-03-20T07:32:22.664Z,100.00
2023-03-20T07:34:59.129Z,100.00
2023-03-20T07:37:34.182Z,100.00
2023-03-20T07:40:09.136Z,100.00
2023-03-20T07:42:45.980Z,100.00
2023-03-20T07:45:20.799Z,99.94
2023-03-20T07:47:54.083Z,99.76
2023-03-20T07:50:26.969Z,99.89
2023-03-20T07:52:59.923Z,99.56
2023-03-20T07:55:33.064Z,98.97
2023-03-20T07:58:06.728Z,98.98
2023-03-20T08:00:39.933Z,98.60
2023-03-20T08:03:12.881Z,98.33
2023-03-20T08:05:47.453Z,97.97
2023-03-20T08:08:21.693Z,97.98
2023-03-20T08:10:54.519Z,98.04
2023-03-20T08:13:29.268Z,97.84
2023-03-20T08:16:02.119Z,97.53
2023-03-20T08:18:35.422Z,97.37
2023-03-20T08:21:09.159Z,97.16
2023-03-20T08:23:42.338Z,96.69
2023-03-20T08:26:16.322Z,96.14
2023-03-20T08:28:51.405Z,95.94
2023-03-20T08:31:24.494Z,95.91
2023-03-20T08:33:58.069Z,95.34
2023-03-20T08:36:31.636Z,94.88
2023-03-20T08:39:07.218Z,94.71
2023-03-20T08:41:42.319Z,94.60
2023-03-20T08:44:16.669Z,94.06
2023-03-20T08:46:49.782Z,93.82
2023-03-20T08:49:22.683Z,93.09
2023-03-20T08:51:56.368Z,93.11
2023-03-20T08:54:30.081Z,93.00
2023-03-20T08:57:03.592Z,92.72
2023-03-20T08:59:36.986Z,92.24
2023-03-20T09:02:12.404Z,91.94
2023-03-20T09:04:45.290Z,91.76
2023-03-20T09:07:18.844Z,91.87
2023-03-20T09:09:51.854Z,91.47
2023-03-20T09:12:25.126Z,91.37
2023-03-20T09:14:57.984Z,91.35
2023-03-20T09:17:31.938Z,91.30
2023-03-20T09:20:05.544Z,91.14
2023-03-20T09:22:40.502Z,90.87
2023-03-20T09:25:13.817Z,90.85
2023-03-20T09:27:47.172Z,90.51
2023-03-20T09:30:19.930Z,90.27
2023-03-20T09:32:54.112Z,89.51
2023-03-20T09:35:27.024Z,89.43
2023-03-20T09:37:59.952Z,89.92
2023-03-20T09:40:52.621Z,90.44
2023-03-20T09:44:11.389Z,90.20
2023-03-20T09:47:20.496Z,90.04
2023-03-20T09:49:59.665Z,89.08
2023-03-20T09:52:40.818Z,89.47
2023-03-20T09:55:21.033Z,89.49
2023-03-20T09:57:58.274Z,89.51
2023-03-20T10:00:33.107Z,89.03
2023-03-20T10:03:15.003Z,88.89
2023-03-20T10:06:09.114Z,88.77
2023-03-20T10:08:43.561Z,89.41
2023-03-20T10:11:44.933Z,89.28
2023-03-20T10:14:41.209Z,89.06
2023-03-20T10:17:24.531Z,89.10
2023-03-20T10:20:29.673Z,89.14
2023-03-20T10:23:18.879Z,89.43
2023-03-20T10:26:11.344Z,89.74
2023-03-20T10:28:54.833Z,89.46
2023-03-20T10:31:51.366Z,89.80
2023-03-20T10:34:56.815Z,89.56
2023-03-20T10:37:58.805Z,89.70
2023-03-20T10:40:39.805Z,90.06
2023-03-20T10:43:25.515Z,89.98
2023-03-20T10:46:17.855Z,90.11
2023-03-20T10:48:56.348Z,89.86
2023-03-20T10:51:42.155Z,89.58
2023-03-20T10:54:25.175Z,89.23
2023-03-20T10:57:06.797Z,88.99
2023-03-20T10:59:55.052Z,89.09
2023-03-20T11:02:33.042Z,89.02
2023-03-20T11:05:37.142Z,88.72
2023-03-20T11:08:15.666Z,88.63
2023-03-20T11:10:48.400Z,88.86
2023-03-20T11:13:37.124Z,88.92
2023-03-20T11:16:33.896Z,88.33
2023-03-20T11:19:12.336Z,88.06
2023-03-20T11:21:56.425Z,88.45
2023-03-20T11:24:40.288Z,88.27
2023-03-20T11:27:28.341Z,88.29
2023-03-20T11:30:06.101Z,88.19
2023-03-20T11:32:49.113Z,87.71
2023-03-20T11:35:31.361Z,87.61
2023-03-20T11:38:24.172Z,87.52
2023-03-20T11:40:58.034Z,87.18
2023-03-20T11:43:31.575Z,86.88
2023-03-20T11:46:05.508Z,86.61
2023-03-20T11:48:40.455Z,86.70
2023-03-20T11:51:20.212Z,87.00
2023-03-20T11:54:13.211Z,86.35
2023-03-20T11:56:57.182Z,86.17
2023-03-20T11:59:35.470Z,86.41
2023-03-20T12:02:14.034Z,86.06
2023-03-20T12:04:47.869Z,86.07
2023-03-20T12:07:25.464Z,85.90
2023-03-20T12:10:09.765Z,85.65
2023-03-20T12:13:04.442Z,85.45
2023-03-20T12:15:41.808Z,85.39
2023-03-20T12:18:30.523Z,84.86
2023-03-20T12:21:23.257Z,84.59
2023-03-20T12:24:03.202Z,84.45
2023-03-20T12:27:04.656Z,83.87
2023-03-20T12:29:51.827Z,83.74
2023-03-20T12:32:44.331Z,83.90
2023-03-20T12:35:31.460Z,83.51
2023-03-20T12:38:08.179Z,83.52
2023-03-20T12:40:45.321Z,83.53
2023-03-20T12:43:30.876Z,83.14
2023-03-20T12:46:23.672Z,83.12
2023-03-20T12:49:22.156Z,82.83
2023-03-20T12:52:15.104Z,82.23
2023-03-20T12:55:01.938Z,81.99
2023-03-20T12:58:04.232Z,82.07
2023-03-20T13:01:01.615Z,81.46
2023-03-20T13:03:51.861Z,81.52
2023-03-20T13:06:47.391Z,81.32
2023-03-20T13:09:49.441Z,81.55
2023-03-20T13:13:01.024Z,81.57
2023-03-20T13:16:06.084Z,81.63
2023-03-20T13:19:04.496Z,81.80
2023-03-20T13:21:51.256Z,81.27
2023-03-20T13:24:49.291Z,81.13
2023-03-20T13:27:41.274Z,81.21
2023-03-20T13:30:40.317Z,81.08
2023-03-20T13:33:23.199Z,81.03
2023-03-20T13:36:06.525Z,81.08
2023-03-20T13:38:43.581Z,81.03
2023-03-20T13:41:16.697Z,80.88
2023-03-20T13:44:02.023Z,80.86
2023-03-20T13:46:51.040Z,80.76
2023-03-20T13:49:48.358Z,80.62
2023-03-20T13:52:38.258Z,80.61
2023-03-20T13:55:30.193Z,80.62
2023-03-20T13:58:28.826Z,80.69
2023-03-20T14:01:27.406Z,80.94
2023-03-20T14:04:01.882Z,81.09
2023-03-20T14:06:49.100Z,81.10
2023-03-20T14:09:37.220Z,81.11
2023-03-20T14:12:13.877Z,81.18
2023-03-20T14:14:58.935Z,81.22
2023-03-20T14:17:33.177Z,81.01
2023-03-20T14:20:31.123Z,81.05
2023-03-20T14:23:06.001Z,81.15
2023-03-20T14:25:44.053Z,80.92
2023-03-20T14:28:27.770Z,81.14
2023-03-20T14:31:26.533Z,81.05
2023-03-20T14:34:22.113Z,81.01
2023-03-20T14:37:06.483Z,81.16
2023-03-20T14:39:47.100Z,81.08
2023-03-20T14:42:30.500Z,81.11
2023-03-20T14:45:48.334Z,81.14
2023-03-20T14:48:43.861Z,81.34
2023-03-20T14:51:42.522Z,81.73
2023-03-20T14:54:29.387Z,81.98
2023-03-20T14:57:13.160Z,82.11
2023-03-20T14:59:46.322Z,82.16
2023-03-20T15:02:32.752Z,82.25
2023-03-20T15:05:06.480Z,82.49
2023-03-20T15:07:40.316Z,82.30
2023-03-20T15:10:13.485Z,82.37
2023-03-20T15:12:46.668Z,82.51
2023-03-20T15:15:31.874Z,82.78
2023-03-20T15:18:15.746Z,83.07
2023-03-20T15:20:49.104Z,83.57
2023-03-20T15:23:23.570Z,84.01
2023-03-20T15:25:56.506Z,84.40
2023-03-20T15:28:31.592Z,84.81
2023-03-20T15:31:05.068Z,85.21
2023-03-20T15:33:42.520Z,85.48
2023-03-20T15:36:23.093Z,85.86
2023-03-20T15:39:17.619Z,86.19
2023-03-20T15:41:58.228Z,86.41
2023-03-20T15:44:40.058Z,86.66
2023-03-20T15:47:22.931Z,86.92
2023-03-20T15:50:02.927Z,87.15
2023-03-20T15:52:44.874Z,87.36
2023-03-20T15:55:21.572Z,87.75
2023-03-20T15:58:01.086Z,87.92
2023-03-20T16:00:40.037Z,88.12
2023-03-20T16:03:18.679Z,88.39
2023-03-20T16:05:53.021Z,88.67
2023-03-20T16:08:34.212Z,89.00
2023-03-20T16:11:11.544Z,89.35
2023-03-20T16:13:49.902Z,89.76
2023-03-20T16:16:25.267Z,90.08
2023-03-20T16:18:59.412Z,90.42
2023-03-20T16:21:41.404Z,90.62
2023-03-20T16:24:25.596Z,90.62
2023-03-20T16:26:59.629Z,90.77
2023-03-20T16:29:32.575Z,91.17
2023-03-20T16:32:18.930Z,91.30
2023-03-20T16:34:53.214Z,91.45
2023-03-20T16:37:31.128Z,91.60
2023-03-20T16:40:35.564Z,91.76
2023-03-20T16:43:20.698Z,91.86
2023-03-20T16:45:56.675Z,92.06
2023-03-20T16:48:39.312Z,92.12
2023-03-20T16:51:21.526Z,92.19
2023-03-20T16:54:02.715Z,92.45
2023-03-20T16:56:39.613Z,92.60
2023-03-20T16:59:17.311Z,92.72
2023-03-20T17:01:53.012Z,92.94
2023-03-20T17:04:39.875Z,93.11
2023-03-20T17:07:19.484Z,93.21
2023-03-20T17:10:22.008Z,93.36
2023-03-20T17:12:55.472Z,93.50
2023-03-20T17:15:28.769Z,93.79
2023-03-20T17:18:03.504Z,94.06
2023-03-20T17:20:36.834Z,94.42
2023-03-20T17:23:19.776Z,94.63
2023-03-20T17:25:54.398Z,94.83
2023-03-20T17:28:32.031Z,95.06
2023-03-20T17:31:05.839Z,95.33
2023-03-20T17:33:40.527Z,95.47
2023-03-20T17:36:32.797Z,95.54
2023-03-20T17:39:05.583Z,95.66
2023-03-20T17:41:39.109Z,95.77
2023-03-20T17:44:12.543Z,96.08
2023-03-20T17:46:57.749Z,96.35
2023-03-20T17:49:23.071Z,96.67
2023-03-20T17:51:57.476Z,96.63
2023-03-20T17:54:30.967Z,96.74
2023-03-20T17:57:04.120Z,97.21
2023-03-20T17:59:36.908Z,97.70
2023-03-20T18:02:13.397Z,97.89
2023-03-20T18:04:50.099Z,98.14
2023-03-20T18:07:23.658Z,98.09
2023-03-20T18:09:57.235Z,98.17
2023-03-20T18:12:30.964Z,97.96
2023-03-20T18:15:04.482Z,97.99
2023-03-20T18:17:37.830Z,98.10
2023-03-20T18:20:29.764Z,98.50
2023-03-20T18:23:03.726Z,98.79
2023-03-20T18:25:37.719Z,98.68
2023-03-20T18:28:18.926Z,98.81
2023-03-20T18:30:53.681Z,98.96
2023-03-20T18:33:28.651Z,99.11
2023-03-20T18:36:02.247Z,99.38
2023-03-20T18:38:35.713Z,99.46
2023-03-20T18:41:09.347Z,99.59
2023-03-20T18:43:44.233Z,99.83
2023-03-20T18:46:22.101Z,99.95
2023-03-20T18:48:56.981Z,100.00
2023-03-20T18:51:32.822Z,100.00
2023-03-20T18:54:05.967Z,100.00
2023-03-20T18:56:39.450Z,100.00
2023-03-20T18:59:14.416Z,100.00
2023-03-20T19:01:47.264Z,100.00
2023-03-20T19:04:22.911Z,100.00
2023-03-20T19:06:56.670Z,100.00
2023-03-20T19:09:29.971Z,100.00
2023-03-20T19:12:02.704Z,100.00
2023-03-20T19:14:36.072Z,100.00
2023-03-20T19:17:10.932Z,100.00
2023-03-20T19:19:44.435Z,100.00
2023-03-20T19:22:28.981Z,100.00
2023-03-20T19:24:53.308Z,100.00
2023-03-20T19:27:26.502Z,100.00
2023-03-20T19:30:00.786Z,100.00
2023-03-20T19:32:34.806Z,100.00
2023-03-20T19:37:47.468Z,100.00
2023-03-20T19:40:38.353Z,100.00
2023-03-20T19:43:10.715Z,100.00
2023-03-20T19:45:46.713Z,100.00
2023-03-20T19:48:22.665Z,100.00
2023-03-20T19:50:57.173Z,100.00
2023-03-20T19:53:31.673Z,100.00
2023-03-20T19:56:05.023Z,100.00
2023-03-20T19:58:40.951Z,100.00
2023-03-20T20:01:25.860Z,100.00
2023-03-20T20:03:59.474Z,100.00
2023-03-20T20:06:33.464Z,100.00
2023-03-20T20:09:06.637Z,100.00
2023-03-20T20:11:39.821Z,100.00
2023-03-20T20:14:14.797Z,100.00
2023-03-20T20:16:52.026Z,100.00
2023-03-20T20:19:25.044Z,100.00
2023-03-20T20:22:24.917Z,100.00
2023-03-20T20:24:34.211Z,100.00
2023-03-20T20:27:18.723Z,100.00
2023-03-20T20:29:49.687Z,100.00
2023-03-20T20:32:26.042Z,100.00
2023-03-20T20:35:38.815Z,100.00
2023-03-20T20:38:25.189Z,100.00
2023-03-20T20:40:17.310Z,100.00
2023-03-20T20:42:52.242Z,100.00
2023-03-20T20:45:31.527Z,100.00
2023-03-20T20:48:07.512Z,100.00
2023-03-20T20:50:43.523Z,100.00
2023-03-20T20:53:17.912Z,100.00
2023-03-20T20:55:51.408Z,100.00
2023-03-20T20:58:24.796Z,100.00
2023-03-20T21:00:58.736Z,100.00
2023-03-20T21:03:32.032Z,100.00
2023-03-20T21:06:09.674Z,100.00
2023-03-20T21:08:42.422Z,100.00
2023-03-20T21:11:16.928Z,100.00
2023-03-20T21:13:54.943Z,100.00
2023-03-20T21:16:29.441Z,100.00
2023-03-20T21:19:02.804Z,100.00
2023-03-20T21:21:36.020Z,100.00
2023-03-20T21:24:30.574Z,100.00
2023-03-20T21:26:46.582Z,100.00
2023-03-20T21:29:20.939Z,100.00
2023-03-20T21:31:54.896Z,100.00
2023-03-20T21:34:29.319Z,100.00
2023-03-20T21:37:56.156Z,100.00
2023-03-20T21:39:38.691Z,100.00
2023-03-20T21:42:16.960Z,100.00
2023-03-20T21:46:04.601Z,100.00
2023-03-20T21:50:45.931Z,100.00
2023-03-20T21:53:16.994Z,100.00
2023-03-20T21:58:23.898Z,100.00
2023-03-20T22:03:01.595Z,100.00
2023-03-20T22:09:09.731Z,100.00
2023-03-20T22:11:38.589Z,100.00
2023-03-20T22:16:33.742Z,100.00
2023-03-20T22:19:29.459Z,100.00
2023-03-20T22:29:48.237Z,100.00
2023-03-20T22:39:48.000Z,100.00
2023-03-20T22:42:38.231Z,100.00
2023-03-20T22:45:00.133Z,100.00
2023-03-20T22:46:54.228Z,100.00
2023-03-20T22:49:27.584Z,100.00
2023-03-20T22:52:24.546Z,100.00
2023-03-20T22:54:36.554Z,100.00
2023-03-20T22:57:09.780Z,100.00
2023-03-20T22:59:42.710Z,100.00
2023-03-20T23:02:17.518Z,100.00
2023-03-20T23:04:49.423Z,100.00
2023-03-20T23:07:22.869Z,100.00
2023-03-20T23:09:55.969Z,100.00
2023-03-20T23:12:28.928Z,100.00
2023-03-20T23:15:02.174Z,100.00
2023-03-20T23:17:35.779Z,100.00
2023-03-20T23:20:12.942Z,100.00
2023-03-20T23:22:45.539Z,100.00
2023-03-20T23:25:30.993Z,100.00
2023-03-20T23:27:55.610Z,100.00
2023-03-20T23:30:37.904Z,100.00
2023-03-20T23:33:03.616Z,100.00
2023-03-20T23:35:37.034Z,100.00
2023-03-20T23:38:10.370Z,100.00
2023-03-20T23:40:44.913Z,100.00
2023-03-20T23:43:19.030Z,100.00
2023-03-20T23:45:52.515Z,100.00
2023-03-20T23:48:26.256Z,100.00
2023-03-20T23:50:59.453Z,100.00
2023-03-20T23:53:33.572Z,100.00
2023-03-20T23:56:07.086Z,100.00
2023-03-20T23:58:47.573Z,100.00
